createdAt,value
2022-07-25T04:16:38.538Z,4.68
2022-07-25T04:19:06.848Z,4.00
2022-07-25T04:21:33.509Z,4.45
2022-07-25T04:24:00.114Z,4.50
2022-07-25T04:26:26.611Z,4.75
2022-07-25T04:28:54.726Z,4.97
2022-07-25T04:31:38.894Z,4.25
2022-07-25T04:34:23.550Z,4.55
2022-07-25T04:36:51.787Z,4.55
2022-07-25T04:39:18.348Z,5.00
2022-07-25T04:41:44.842Z,5.25
2022-07-25T04:44:11.401Z,4.63
2022-07-25T04:46:38.020Z,4.40
2022-07-25T04:49:04.813Z,4.70
2022-07-25T04:51:31.389Z,4.55
2022-07-25T04:53:57.949Z,4.35
2022-07-25T04:56:24.460Z,4.85
2022-07-25T04:58:54.046Z,3.90
2022-07-25T05:01:20.589Z,4.80
2022-07-25T05:03:50.010Z,4.28
2022-07-25T05:06:18.751Z,4.00
2022-07-25T05:08:45.420Z,4.50
2022-07-25T05:11:11.985Z,4.38
2022-07-25T05:13:38.507Z,4.03
2022-07-25T05:16:05.567Z,4.63
2022-07-25T05:18:34.281Z,5.05
2022-07-25T05:21:03.900Z,4.70
2022-07-25T05:23:30.450Z,4.57
2022-07-25T05:25:57.628Z,5.07
2022-07-25T05:28:24.098Z,4.97
2022-07-25T05:30:50.652Z,5.00
2022-07-25T05:33:17.173Z,4.85
2022-07-25T05:35:52.971Z,5.60
2022-07-25T05:38:19.769Z,5.38
2022-07-25T05:40:46.323Z,5.38
2022-07-25T05:43:12.891Z,5.03
2022-07-25T05:45:39.349Z,4.88
2022-07-25T05:48:06.602Z,5.60
2022-07-25T05:50:33.127Z,5.38
2022-07-25T05:52:59.688Z,5.22
2022-07-25T05:55:26.221Z,5.65
2022-07-25T05:57:52.763Z,5.57
2022-07-25T06:00:19.361Z,5.57
2022-07-25T06:02:45.986Z,6.13
2022-07-25T06:05:12.728Z,5.75
2022-07-25T06:07:39.793Z,5.40
2022-07-25T06:10:06.448Z,5.03
2022-07-25T06:12:33.733Z,5.53
2022-07-25T06:15:04.208Z,5.63
2022-07-25T06:17:32.700Z,4.63
2022-07-25T06:19:59.524Z,5.68
2022-07-25T06:22:26.365Z,5.97
2022-07-25T06:24:52.974Z,6.50
2022-07-25T06:27:21.107Z,6.28
2022-07-25T06:29:49.663Z,6.18
2022-07-25T06:36:12.144Z,5.28
2022-07-25T06:38:38.712Z,5.80
2022-07-25T06:41:05.360Z,5.85
2022-07-25T06:43:31.900Z,6.60
2022-07-25T06:45:58.383Z,5.90
2022-07-25T06:48:24.995Z,6.07
2022-07-25T06:50:51.684Z,5.93
2022-07-25T06:53:18.520Z,6.63
2022-07-25T06:55:45.552Z,5.47
2022-07-25T06:58:12.136Z,5.53
2022-07-25T07:00:43.966Z,5.63
2022-07-25T07:03:10.867Z,5.53
2022-07-25T07:05:39.424Z,5.57
2022-07-25T07:08:06.129Z,5.78
2022-07-25T07:10:37.898Z,5.88
2022-07-25T07:13:09.462Z,4.93
2022-07-25T07:15:37.065Z,5.47
2022-07-25T07:18:06.317Z,5.15
2022-07-25T07:20:33.144Z,6.03
2022-07-25T07:22:59.664Z,4.85
2022-07-25T07:25:28.312Z,6.03
2022-07-25T07:27:55.261Z,6.03
2022-07-25T07:30:24.435Z,6.45
2022-07-25T07:33:02.079Z,5.82
2022-07-25T07:35:28.667Z,5.63
2022-07-25T07:38:01.407Z,5.63
2022-07-25T07:40:28.091Z,5.88
2022-07-25T07:42:57.194Z,5.60
2022-07-25T07:46:33.992Z,6.07
2022-07-25T07:49:29.863Z,5.13
2022-07-25T07:52:06.898Z,5.95
2022-07-25T07:54:56.473Z,6.07
2022-07-25T07:57:31.981Z,6.03
2022-07-25T07:59:59.483Z,5.95
2022-07-25T08:02:27.117Z,5.88
2022-07-25T08:04:53.823Z,5.45
2022-07-25T08:07:20.501Z,5.40
2022-07-25T08:09:47.048Z,6.53
2022-07-25T08:12:13.571Z,6.28
2022-07-25T08:14:42.139Z,6.00
2022-07-25T08:17:08.722Z,6.15
2022-07-25T08:19:39.350Z,5.68
2022-07-25T08:22:05.864Z,6.28
2022-07-25T08:24:32.365Z,6.05
2022-07-25T08:27:01.899Z,5.65
2022-07-25T08:29:28.565Z,6.70
2022-07-25T08:31:55.039Z,6.15
2022-07-25T08:34:26.673Z,6.75
2022-07-25T08:36:53.156Z,5.38
2022-07-25T08:39:19.950Z,5.90
2022-07-25T08:41:47.636Z,6.38
2022-07-25T08:44:16.203Z,6.05
2022-07-25T08:46:43.776Z,6.38
2022-07-25T08:49:10.676Z,5.68
2022-07-25T08:51:38.591Z,5.95
2022-07-25T08:54:06.060Z,5.90
2022-07-25T08:56:33.966Z,6.47
2022-07-25T08:59:00.782Z,6.22
2022-07-25T09:01:31.646Z,5.95
2022-07-25T09:04:27.410Z,5.97
2022-07-25T09:07:17.959Z,7.10
2022-07-25T09:09:51.356Z,6.45
2022-07-25T09:12:27.593Z,6.20
2022-07-25T09:17:30.402Z,5.90
2022-07-25T09:20:05.535Z,5.70
2022-07-25T09:22:51.682Z,6.13
2022-07-25T09:25:39.339Z,5.70
2022-07-25T09:28:31.114Z,6.82
2022-07-25T09:31:02.809Z,5.80
2022-07-25T09:33:34.315Z,5.78
2022-07-25T09:36:12.357Z,5.97
2022-07-25T09:39:17.710Z,6.00
2022-07-25T09:41:53.405Z,6.40
2022-07-25T09:44:30.434Z,6.82
2022-07-25T09:47:16.197Z,5.25
2022-07-25T09:50:09.753Z,6.65
2022-07-25T09:53:02.784Z,6.15
2022-07-25T09:56:35.214Z,5.05
2022-07-25T10:02:47.628Z,5.72
2022-07-25T10:05:22.047Z,5.80
2022-07-25T10:07:54.772Z,6.03
2022-07-25T10:10:43.543Z,5.70
2022-07-25T10:13:29.649Z,5.75
2022-07-25T10:15:59.969Z,5.68
2022-07-25T10:18:31.527Z,5.93
2022-07-25T10:21:25.564Z,5.55
2022-07-25T10:24:09.996Z,5.78
2022-07-25T10:26:52.609Z,5.47
2022-07-25T10:29:19.115Z,5.95
2022-07-25T10:31:50.632Z,4.93
2022-07-25T10:34:29.022Z,6.15
2022-07-25T10:36:57.095Z,6.13
2022-07-25T10:39:23.952Z,5.60
2022-07-25T10:42:18.218Z,6.05
2022-07-25T10:44:48.304Z,5.63
2022-07-25T10:47:17.301Z,5.25
2022-07-25T10:50:15.303Z,5.45
2022-07-25T10:52:42.556Z,5.47
2022-07-25T10:55:09.345Z,5.68
2022-07-25T10:57:41.596Z,5.70
2022-07-25T11:00:16.953Z,5.68
2022-07-25T11:02:44.274Z,6.20
2022-07-25T11:05:10.798Z,6.55
2022-07-25T11:07:37.238Z,5.60
2022-07-25T11:10:06.163Z,5.40
2022-07-25T11:12:33.425Z,5.10
2022-07-25T11:15:03.744Z,5.55
2022-07-25T11:17:30.553Z,5.35
2022-07-25T11:19:58.239Z,5.43
2022-07-25T11:22:26.306Z,5.35
2022-07-25T11:24:53.485Z,5.07
2022-07-25T11:27:23.913Z,5.32
2022-07-25T11:29:51.305Z,5.97
2022-07-25T11:32:17.961Z,5.25
2022-07-25T11:34:52.536Z,4.82
2022-07-25T11:37:20.366Z,6.00
2022-07-25T11:39:47.871Z,5.57
2022-07-25T11:42:19.697Z,5.13
2022-07-25T11:44:49.129Z,4.63
2022-07-25T11:47:25.216Z,5.53
2022-07-25T11:49:52.913Z,5.40
2022-07-25T11:52:22.004Z,5.10
2022-07-25T11:54:52.823Z,4.57
2022-07-25T11:57:30.754Z,5.53
2022-07-25T12:00:00.394Z,5.50
2022-07-25T12:02:31.125Z,4.47
2022-07-25T12:05:05.052Z,5.45
2022-07-25T12:07:38.654Z,5.40
2022-07-25T12:10:07.777Z,5.00
2022-07-25T12:12:50.403Z,4.20
2022-07-25T12:15:26.595Z,4.38
2022-07-25T12:17:54.992Z,4.00
2022-07-25T12:20:25.978Z,3.25
2022-07-25T12:22:56.451Z,3.42
2022-07-25T12:25:26.397Z,3.22
2022-07-25T12:27:58.730Z,3.63
2022-07-25T12:30:27.426Z,3.35
2022-07-25T12:32:54.329Z,4.07
2022-07-25T12:35:20.842Z,3.50
2022-07-25T12:37:47.659Z,4.72
2022-07-25T12:40:16.408Z,3.50
2022-07-25T12:42:44.150Z,3.20
2022-07-25T12:45:12.457Z,3.17
2022-07-25T12:47:39.183Z,3.38
2022-07-25T12:50:06.341Z,4.32
2022-07-25T12:52:32.997Z,2.85
2022-07-25T12:54:59.573Z,3.70
2022-07-25T12:57:26.217Z,3.55
2022-07-25T12:59:53.075Z,3.33
2022-07-25T13:02:19.695Z,3.70
2022-07-25T13:04:46.277Z,3.53
2022-07-25T13:07:13.545Z,3.72
2022-07-25T13:09:40.132Z,3.35
2022-07-25T13:12:07.079Z,3.28
2022-07-25T13:14:33.581Z,3.40
2022-07-25T13:17:00.682Z,3.50
2022-07-25T13:19:28.474Z,3.30
2022-07-25T13:21:54.959Z,3.17
2022-07-25T13:24:21.436Z,3.83
2022-07-25T13:26:48.097Z,3.53
2022-07-25T13:29:14.606Z,3.60
2022-07-25T13:31:42.077Z,4.32
2022-07-25T13:34:10.006Z,3.90
2022-07-25T13:36:38.150Z,3.22
2022-07-25T13:39:05.643Z,3.53
2022-07-25T13:41:32.925Z,3.72
2022-07-25T13:44:00.295Z,3.33
2022-07-25T13:46:27.034Z,3.63
2022-07-25T13:48:55.095Z,3.50
2022-07-25T13:51:21.636Z,3.45
2022-07-25T13:53:48.230Z,2.80
2022-07-25T13:56:14.746Z,3.33
2022-07-25T13:58:41.654Z,3.35
2022-07-25T14:01:09.499Z,3.20
2022-07-25T14:03:36.890Z,3.42
2022-07-25T14:06:05.062Z,3.45
2022-07-25T14:08:32.078Z,3.45
2022-07-25T14:10:58.620Z,4.00
2022-07-25T14:13:25.178Z,4.13
2022-07-25T14:15:52.175Z,3.90
2022-07-25T14:18:18.760Z,3.30
2022-07-25T14:20:46.530Z,4.22
2022-07-25T14:23:13.480Z,3.67
2022-07-25T14:25:40.081Z,3.95
2022-07-25T14:28:06.838Z,4.25
2022-07-25T14:30:33.499Z,3.47
2022-07-25T14:32:59.994Z,3.50
2022-07-25T14:35:32.166Z,3.17
2022-07-25T14:40:25.673Z,4.07
2022-07-25T14:42:52.157Z,4.05
2022-07-25T14:45:18.875Z,3.72
2022-07-25T14:47:45.390Z,3.45
2022-07-25T14:50:11.913Z,5.43
2022-07-25T14:52:38.557Z,3.58
2022-07-25T14:55:05.787Z,4.18
2022-07-25T14:57:33.174Z,3.83
2022-07-25T15:00:01.844Z,4.30
2022-07-25T15:02:29.845Z,4.72
2022-07-25T15:04:56.414Z,4.10
2022-07-25T15:07:22.959Z,4.18
2022-07-25T15:09:49.403Z,3.88
2022-07-25T15:12:17.390Z,3.83
2022-07-25T15:14:44.067Z,3.42
2022-07-25T15:17:12.773Z,3.33
2022-07-25T15:19:39.472Z,3.92
2022-07-25T15:22:06.279Z,3.35
2022-07-25T15:24:44.487Z,4.50
2022-07-25T15:27:19.351Z,3.78
2022-07-25T15:29:45.910Z,3.90
2022-07-25T15:32:12.444Z,3.85
2022-07-25T15:34:39.269Z,3.33
2022-07-25T15:37:05.812Z,3.50
2022-07-25T15:39:32.477Z,3.47
2022-07-25T15:41:59.172Z,2.85
2022-07-25T15:44:25.739Z,3.22
2022-07-25T15:46:52.453Z,3.13
2022-07-25T15:49:21.162Z,3.00
2022-07-25T15:51:48.094Z,4.68
2022-07-25T15:54:14.736Z,3.00
2022-07-25T15:56:41.427Z,3.50
2022-07-25T15:59:08.479Z,3.75
2022-07-25T16:01:35.304Z,3.47
2022-07-25T16:04:01.910Z,3.42
2022-07-25T16:06:28.503Z,3.88
2022-07-25T16:08:55.167Z,3.60
2022-07-25T16:11:24.791Z,3.53
2022-07-25T16:13:51.395Z,3.08
2022-07-25T16:16:18.074Z,3.10
2022-07-25T16:18:44.789Z,3.25
2022-07-25T16:21:11.393Z,3.85
2022-07-25T16:23:42.583Z,3.33
2022-07-25T16:26:12.309Z,3.70
2022-07-25T16:28:39.857Z,3.40
2022-07-25T16:31:06.869Z,4.18
2022-07-25T16:33:33.751Z,3.67
2022-07-25T16:36:00.388Z,3.97
2022-07-25T16:38:28.768Z,4.38
2022-07-25T16:40:55.636Z,3.95
2022-07-25T16:43:22.173Z,4.07
2022-07-25T16:45:48.719Z,3.67
2022-07-25T16:48:15.675Z,4.20
2022-07-25T16:50:42.274Z,4.30
2022-07-25T16:53:08.767Z,3.88
2022-07-25T16:55:35.253Z,4.45
2022-07-25T16:58:01.721Z,3.83
2022-07-25T17:00:28.321Z,3.53
2022-07-25T17:02:54.797Z,4.03
2022-07-25T17:05:21.351Z,4.65
2022-07-25T17:07:48.863Z,3.70
2022-07-25T17:10:18.649Z,4.60
2022-07-25T17:12:45.264Z,4.65
2022-07-25T17:15:12.383Z,3.35
2022-07-25T17:17:38.991Z,3.33
2022-07-25T17:20:06.014Z,3.72
2022-07-25T17:22:32.928Z,3.97
2022-07-25T17:24:59.418Z,3.60
2022-07-25T17:27:25.936Z,3.72
2022-07-25T17:29:52.499Z,3.20
2022-07-25T17:32:19.004Z,3.00
2022-07-25T17:34:45.587Z,2.97
2022-07-25T17:37:12.166Z,2.83
2022-07-25T17:39:39.980Z,2.80
2022-07-25T17:42:07.207Z,2.75
2022-07-25T17:44:34.789Z,2.75
2022-07-25T17:47:02.859Z,2.25
2022-07-25T17:49:29.770Z,2.30
2022-07-25T17:51:56.251Z,1.70
2022-07-25T17:54:23.193Z,1.55
2022-07-25T17:56:49.786Z,1.80
2022-07-25T17:59:16.489Z,2.15
2022-07-25T18:01:43.143Z,1.88
2022-07-25T18:04:10.083Z,2.03
2022-07-25T18:06:37.853Z,1.60
2022-07-25T18:09:04.554Z,2.05
2022-07-25T18:11:31.080Z,2.10
2022-07-25T18:13:59.401Z,1.52
2022-07-25T18:16:26.492Z,1.20
2022-07-25T18:18:53.066Z,1.40
2022-07-25T18:21:20.690Z,1.60
2022-07-25T18:23:48.322Z,1.58
2022-07-25T18:26:14.912Z,1.70
2022-07-25T18:28:42.554Z,1.58
2022-07-25T18:31:10.347Z,1.27
2022-07-25T18:33:37.154Z,1.25
2022-07-25T18:36:07.593Z,2.00
2022-07-25T18:38:35.465Z,1.55
2022-07-25T18:41:27.396Z,1.15
2022-07-25T18:43:49.985Z,1.20
2022-07-25T18:46:17.806Z,1.17
2022-07-25T18:48:45.200Z,1.88
2022-07-25T18:51:12.099Z,1.65
2022-07-25T18:53:38.853Z,1.45
2022-07-25T18:56:05.904Z,1.48
2022-07-25T18:58:33.650Z,1.33
2022-07-25T19:01:02.792Z,1.40
2022-07-25T19:03:30.094Z,1.30
2022-07-25T19:06:01.270Z,1.23
2022-07-25T19:10:56.624Z,1.38
2022-07-25T19:13:47.789Z,1.10
2022-07-25T19:16:11.984Z,1.40
2022-07-25T19:18:39.323Z,1.50
2022-07-25T19:21:06.077Z,1.20
2022-07-25T19:23:32.794Z,1.50
2022-07-25T19:26:00.846Z,1.33
2022-07-25T19:28:44.325Z,1.17
2022-07-25T19:33:38.876Z,1.55
2022-07-25T19:36:06.767Z,2.45
2022-07-25T19:38:33.479Z,1.40
2022-07-25T19:41:01.831Z,1.60
2022-07-25T19:43:28.387Z,1.40
2022-07-25T19:45:54.925Z,1.25
2022-07-25T19:48:24.233Z,1.02
2022-07-25T19:50:51.656Z,1.65
2022-07-25T19:53:18.623Z,1.60
2022-07-25T19:55:45.160Z,1.00
2022-07-25T19:58:11.666Z,1.52
2022-07-25T20:00:39.336Z,2.17
2022-07-25T20:03:06.155Z,1.05
2022-07-25T20:05:32.925Z,1.10
2022-07-25T20:08:00.482Z,2.40
2022-07-25T20:10:27.102Z,6.80
2022-07-25T20:12:56.884Z,1.75
2022-07-25T20:16:18.429Z,2.50
2022-07-25T20:18:48.500Z,2.72
2022-07-25T20:21:17.856Z,2.53
2022-07-25T20:23:45.973Z,3.13
2022-07-25T20:26:13.681Z,2.80
2022-07-25T20:28:45.874Z,2.42
2022-07-25T20:31:12.800Z,3.88
2022-07-25T20:33:39.453Z,1.23
2022-07-25T20:36:06.242Z,1.70
2022-07-25T20:38:32.820Z,1.30
2022-07-25T20:40:59.776Z,1.70
2022-07-25T20:43:39.119Z,1.13
2022-07-25T20:46:12.644Z,1.63
2022-07-25T20:48:41.707Z,1.83
2022-07-25T20:51:08.499Z,1.05
2022-07-25T20:53:35.134Z,1.50
2022-07-25T20:56:02.503Z,2.25
2022-07-25T20:58:29.067Z,1.13
2022-07-25T21:00:56.103Z,1.45
2022-07-25T21:03:22.693Z,4.35
2022-07-25T21:05:49.184Z,1.50
2022-07-25T21:08:15.820Z,1.50
2022-07-25T21:10:42.809Z,1.67
2022-07-25T21:13:10.368Z,2.35
2022-07-25T21:15:37.192Z,1.52
2022-07-25T21:18:03.911Z,1.70
2022-07-25T21:20:30.479Z,1.38
2022-07-25T21:22:57.022Z,1.77
2022-07-25T21:25:23.493Z,1.23
2022-07-25T21:27:50.254Z,2.72
2022-07-25T21:30:16.822Z,1.63
2022-07-25T21:32:44.361Z,2.38
2022-07-25T21:35:20.083Z,3.00
2022-07-25T21:38:26.693Z,2.05
2022-07-25T21:40:56.060Z,4.57
2022-07-25T21:43:22.889Z,2.17
2022-07-25T21:45:49.652Z,2.45
2022-07-25T21:48:16.153Z,2.13
2022-07-25T21:50:51.292Z,1.87
2022-07-25T21:53:17.753Z,1.58
2022-07-25T21:55:44.411Z,1.90
2022-07-25T21:58:10.857Z,2.88
